Martin, Pennsylvania
Current Conditions -  °F | °C
As of 10:53 PM on Wednesday 22 Oct 2014 (Local Time) from KMGW Reporting Station
Overcast Overcast  
Wind Chill: 45°   Ceiling: 2000
Heat Index: 49°   Visibility: 10mi
Dew Point: 39°   Wind: 9mph
Humidity: 69%   Direction: 350°N
Pressure: 30.18"   Gusts: NA
Location:  39.81°N, 79.91°W
Report Text: KMGW 230253Z 35008KT 10SM OVC020 09/04 A3018 RMK AO2 SLP222 T00940039 50002
Loading
Personal Weather Stations






























Interactive Weather Map
Tropical Storm Tracking
New forecast layout! Learn more

10-Day Weather Forecast

Advertisements
Track Severe Weather on mobile